createdAt,value
2019-02-24T00:02:02.755Z,86.40
2019-02-24T00:04:31.287Z,84.70
2019-02-24T00:06:59.799Z,84.20
2019-02-24T00:09:28.352Z,83.70
2019-02-24T00:11:57.097Z,83.50
2019-02-24T00:14:25.711Z,83.30
2019-02-24T00:16:54.395Z,83.30
2019-02-24T00:19:23.048Z,84.10
2019-02-24T00:21:51.622Z,84.00
2019-02-24T00:24:20.390Z,84.30
2019-02-24T00:26:49.061Z,84.20
2019-02-24T00:29:17.782Z,84.00
2019-02-24T00:31:46.576Z,83.30
2019-02-24T00:34:15.178Z,84.20
2019-02-24T00:36:44.000Z,84.90
2019-02-24T00:39:12.723Z,85.40
2019-02-24T00:41:41.344Z,85.20
2019-02-24T00:44:09.835Z,84.90
2019-02-24T00:46:38.377Z,84.10
2019-02-24T00:49:06.952Z,83.90
2019-02-24T00:51:35.707Z,83.70
2019-02-24T00:54:04.282Z,84.20
2019-02-24T00:56:32.856Z,84.30
2019-02-24T00:59:01.455Z,84.40
2019-02-24T01:01:30.000Z,84.40
2019-02-24T01:03:58.570Z,84.30
2019-02-24T01:06:27.212Z,83.60
2019-02-24T01:08:55.694Z,83.60
2019-02-24T01:11:24.307Z,83.80
2019-02-24T01:13:54.003Z,84.00
2019-02-24T01:16:22.879Z,84.90
2019-02-24T01:18:51.410Z,85.80
2019-02-24T01:21:19.958Z,86.10
2019-02-24T01:23:48.516Z,86.30
2019-02-24T01:26:17.008Z,86.20
2019-02-24T01:28:45.544Z,85.80
2019-02-24T01:31:14.104Z,86.50
2019-02-24T01:33:42.622Z,86.10
2019-02-24T01:36:11.151Z,85.90
2019-02-24T01:38:39.664Z,85.90
2019-02-24T01:41:08.130Z,85.70
2019-02-24T01:43:36.695Z,86.50
2019-02-24T01:46:05.171Z,86.50
2019-02-24T01:48:33.659Z,87.20
2019-02-24T01:51:02.145Z,87.20
2019-02-24T01:53:30.608Z,88.20
2019-02-24T01:55:59.254Z,88.50
2019-02-24T01:58:34.994Z,88.80
2019-02-24T02:00:58.516Z,89.00
2019-02-24T02:03:27.051Z,88.80
2019-02-24T02:05:55.603Z,88.30
2019-02-24T02:08:24.142Z,87.30
2019-02-24T02:10:52.794Z,86.80
2019-02-24T02:13:21.359Z,86.30
2019-02-24T02:15:50.003Z,85.80
2019-02-24T02:18:18.571Z,85.50
2019-02-24T02:20:47.087Z,85.10
2019-02-24T02:23:16.157Z,85.80
2019-02-24T02:25:45.081Z,86.40
2019-02-24T02:28:13.775Z,86.70
2019-02-24T02:30:42.377Z,87.20
2019-02-24T02:33:10.962Z,87.00
2019-02-24T02:35:39.662Z,86.60
2019-02-24T02:38:08.296Z,87.60
2019-02-24T02:40:36.941Z,88.50
2019-02-24T02:43:05.508Z,89.10
2019-02-24T02:45:34.213Z,89.60
2019-02-24T02:48:02.746Z,90.00
2019-02-24T02:50:31.323Z,90.30
2019-02-24T02:52:59.870Z,90.60
2019-02-24T02:55:28.534Z,90.70
2019-02-24T02:57:57.191Z,90.70
2019-02-24T03:00:30.731Z,90.40
2019-02-24T03:02:59.264Z,89.90
2019-02-24T03:05:27.836Z,90.00
2019-02-24T03:07:57.940Z,90.00
2019-02-24T03:10:26.401Z,90.40
2019-02-24T03:12:54.893Z,90.30
2019-02-24T03:15:23.364Z,90.10
2019-02-24T03:17:51.934Z,89.90
2019-02-24T03:20:20.474Z,90.80
2019-02-24T03:22:49.046Z,91.50
2019-02-24T03:25:17.838Z,91.80
2019-02-24T03:27:46.385Z,91.80
2019-02-24T03:30:15.033Z,91.20
2019-02-24T03:32:43.603Z,91.20
2019-02-24T03:35:12.167Z,91.60
2019-02-24T03:37:40.663Z,91.80
2019-02-24T03:40:09.273Z,91.90
2019-02-24T03:42:37.878Z,91.20
2019-02-24T03:45:08.988Z,91.10
2019-02-24T03:47:37.489Z,91.00
2019-02-24T03:50:08.137Z,90.90
2019-02-24T03:52:36.854Z,90.70
2019-02-24T03:55:05.858Z,90.60
2019-02-24T03:57:34.665Z,90.80
2019-02-24T04:00:03.693Z,90.30
2019-02-24T04:02:32.229Z,90.10
2019-02-24T04:05:00.870Z,90.10
2019-02-24T04:07:29.508Z,90.10
2019-02-24T04:09:58.003Z,90.10
2019-02-24T04:12:26.491Z,90.20
2019-02-24T04:14:54.956Z,90.40
2019-02-24T04:17:23.455Z,90.60
2019-02-24T04:19:51.916Z,90.70
2019-02-24T04:22:20.479Z,91.30
2019-02-24T04:24:48.949Z,91.80
2019-02-24T04:27:17.447Z,91.80
2019-02-24T04:29:45.923Z,91.60
2019-02-24T04:32:14.461Z,91.40
2019-02-24T04:34:43.036Z,91.90
2019-02-24T04:37:11.499Z,92.10
2019-02-24T04:39:39.997Z,92.30
2019-02-24T04:42:08.452Z,92.30
2019-02-24T04:44:36.953Z,92.00
2019-02-24T04:47:05.507Z,91.50
2019-02-24T04:49:34.004Z,91.00
2019-02-24T04:52:02.472Z,90.80
2019-02-24T04:54:31.004Z,91.10
2019-02-24T04:56:59.471Z,90.70
2019-02-24T04:59:34.779Z,90.90
2019-02-24T05:01:58.236Z,90.50
2019-02-24T05:04:26.702Z,90.70
2019-02-24T05:06:55.216Z,90.90
2019-02-24T05:09:23.751Z,91.00
2019-02-24T05:11:52.213Z,91.60
2019-02-24T05:14:20.988Z,92.20
2019-02-24T05:16:49.561Z,92.40
2019-02-24T05:19:18.132Z,92.50
2019-02-24T05:21:46.699Z,92.10
2019-02-24T05:24:15.200Z,91.90
2019-02-24T05:26:43.745Z,91.70
2019-02-24T05:29:12.283Z,92.10
2019-02-24T05:31:40.768Z,92.40
2019-02-24T05:34:09.241Z,92.80
2019-02-24T05:36:37.799Z,92.90
2019-02-24T05:39:06.372Z,92.70
2019-02-24T05:41:34.957Z,92.20
2019-02-24T05:44:03.496Z,92.10
2019-02-24T05:46:32.065Z,91.90
2019-02-24T05:49:00.605Z,92.20
2019-02-24T05:51:29.176Z,92.70
2019-02-24T05:53:57.715Z,93.10
2019-02-24T05:56:26.244Z,93.00
2019-02-24T05:58:54.759Z,92.60
2019-02-24T06:01:23.274Z,92.60
2019-02-24T06:03:51.741Z,92.60
2019-02-24T06:06:20.201Z,92.60
2019-02-24T06:08:48.777Z,92.60
2019-02-24T06:11:17.240Z,92.70
2019-02-24T06:13:45.743Z,93.10
2019-02-24T06:16:14.291Z,93.40
2019-02-24T06:18:42.880Z,93.60
2019-02-24T06:21:11.417Z,93.70
2019-02-24T06:23:39.996Z,93.70
2019-02-24T06:26:08.496Z,93.40
2019-02-24T06:28:37.043Z,93.40
2019-02-24T06:31:05.691Z,93.50
2019-02-24T06:33:34.230Z,92.90
2019-02-24T06:36:02.793Z,92.60
2019-02-24T06:38:31.296Z,92.30
2019-02-24T06:40:59.988Z,92.30
2019-02-24T06:43:28.628Z,92.20
2019-02-24T06:45:57.120Z,92.30
2019-02-24T06:48:25.701Z,92.30
2019-02-24T06:50:55.881Z,92.70
2019-02-24T06:53:24.386Z,92.90
2019-02-24T06:55:52.946Z,93.00
2019-02-24T06:58:21.548Z,92.20
2019-02-24T07:00:50.005Z,91.80
2019-02-24T07:03:18.493Z,91.50
2019-02-24T07:05:46.955Z,91.70
2019-02-24T07:08:15.450Z,92.20
2019-02-24T07:10:43.918Z,92.40
2019-02-24T07:13:12.489Z,91.70
2019-02-24T07:15:40.952Z,90.30
2019-02-24T07:18:09.454Z,89.10
2019-02-24T07:20:37.947Z,87.10
2019-02-24T07:23:06.407Z,84.70
2019-02-24T07:25:34.972Z,82.80
2019-02-24T07:28:03.536Z,81.00
2019-02-24T07:30:32.089Z,80.40
2019-02-24T07:33:00.602Z,79.20
2019-02-24T07:35:29.123Z,79.10
2019-02-24T07:37:57.625Z,79.20
2019-02-24T07:40:26.148Z,79.20
2019-02-24T07:42:54.627Z,79.60
2019-02-24T07:45:23.215Z,79.60
2019-02-24T07:47:52.646Z,79.70
2019-02-24T07:50:21.211Z,78.80
2019-02-24T07:52:49.676Z,78.00
2019-02-24T07:55:18.179Z,77.10
2019-02-24T07:57:46.640Z,76.40
2019-02-24T08:00:15.271Z,74.30
2019-02-24T08:02:43.748Z,71.60
2019-02-24T08:05:12.316Z,73.30
2019-02-24T08:07:40.813Z,74.80
2019-02-24T08:10:09.380Z,73.10
2019-02-24T08:12:37.840Z,71.00
2019-02-24T08:15:08.277Z,67.90
2019-02-24T08:17:36.775Z,67.70
2019-02-24T08:20:08.242Z,65.50
2019-02-24T08:22:36.743Z,63.40
2019-02-24T08:25:06.847Z,63.90
2019-02-24T08:27:35.456Z,62.40
2019-02-24T08:30:06.066Z,62.90
2019-02-24T08:32:34.627Z,59.90
2019-02-24T08:35:03.121Z,59.40
2019-02-24T08:37:31.684Z,59.40
2019-02-24T08:40:00.298Z,59.90
2019-02-24T08:42:28.792Z,60.40
2019-02-24T08:44:57.288Z,60.00
2019-02-24T08:47:25.759Z,59.50
2019-02-24T08:49:54.268Z,59.80
2019-02-24T08:52:22.733Z,59.80
2019-02-24T08:54:51.367Z,59.60
2019-02-24T08:57:19.859Z,59.40
2019-02-24T08:59:48.322Z,60.00
2019-02-24T09:02:16.774Z,61.00
2019-02-24T09:04:45.271Z,63.00
2019-02-24T09:07:13.927Z,64.30
2019-02-24T09:09:42.392Z,64.70
2019-02-24T09:12:10.899Z,62.60
2019-02-24T09:14:39.369Z,61.40
2019-02-24T09:17:07.936Z,62.20
2019-02-24T09:19:36.794Z,61.20
2019-02-24T09:22:05.509Z,61.20
2019-02-24T09:24:34.000Z,60.10
2019-02-24T09:27:02.463Z,60.20
2019-02-24T09:29:31.039Z,61.40
2019-02-24T09:31:59.576Z,62.60
2019-02-24T09:34:28.086Z,61.00
2019-02-24T09:36:56.556Z,59.00
2019-02-24T09:39:25.099Z,57.00
2019-02-24T09:41:53.655Z,56.00
2019-02-24T09:44:22.119Z,55.90
2019-02-24T09:46:50.680Z,54.10
2019-02-24T09:49:19.141Z,54.00
2019-02-24T09:51:47.644Z,52.40
2019-02-24T09:54:16.151Z,52.40
2019-02-24T09:56:44.720Z,50.70
2019-02-24T09:59:13.200Z,50.40
2019-02-24T10:01:41.775Z,49.50
2019-02-24T10:04:10.312Z,48.10
2019-02-24T10:06:38.891Z,49.10
2019-02-24T10:09:07.403Z,49.60
2019-02-24T10:11:36.004Z,50.70
2019-02-24T10:14:04.538Z,51.20
2019-02-24T10:16:33.205Z,47.00
2019-02-24T10:19:01.744Z,46.90
2019-02-24T10:21:30.207Z,47.00
2019-02-24T10:23:58.775Z,44.50
2019-02-24T10:26:27.250Z,44.20
2019-02-24T10:28:55.744Z,44.10
2019-02-24T10:31:24.222Z,43.90
2019-02-24T10:33:52.790Z,42.60
2019-02-24T10:36:21.696Z,39.00
2019-02-24T10:38:50.251Z,41.50
2019-02-24T10:41:18.783Z,43.80
2019-02-24T10:43:47.288Z,42.90
2019-02-24T10:46:15.765Z,44.80
2019-02-24T10:48:44.337Z,43.30
2019-02-24T10:51:12.804Z,42.10
2019-02-24T10:53:41.377Z,40.70
2019-02-24T10:56:09.909Z,39.10
2019-02-24T10:58:38.407Z,40.00
2019-02-24T11:01:07.000Z,38.50
2019-02-24T11:03:35.490Z,40.50
2019-02-24T11:06:03.961Z,39.50
2019-02-24T11:08:32.593Z,39.70
2019-02-24T11:11:01.052Z,39.80
2019-02-24T11:13:29.612Z,38.90
2019-02-24T11:15:58.105Z,38.80
2019-02-24T11:18:26.568Z,38.20
2019-02-24T11:20:55.075Z,39.60
2019-02-24T11:23:23.664Z,38.70
2019-02-24T11:25:52.359Z,36.70
2019-02-24T11:28:20.866Z,37.20
2019-02-24T11:30:49.506Z,38.60
2019-02-24T11:33:17.976Z,40.00
2019-02-24T11:35:46.635Z,40.00
2019-02-24T11:38:15.099Z,40.50
2019-02-24T11:40:43.705Z,39.80
2019-02-24T11:43:12.288Z,39.90
2019-02-24T11:45:40.827Z,41.00
2019-02-24T11:48:09.331Z,39.20
2019-02-24T11:50:37.881Z,39.20
2019-02-24T11:53:06.445Z,38.20
2019-02-24T11:55:34.921Z,38.00
2019-02-24T11:58:03.482Z,38.10
2019-02-24T12:00:32.112Z,37.80
2019-02-24T12:03:00.994Z,38.10
2019-02-24T12:05:29.727Z,36.00
2019-02-24T12:07:58.185Z,34.60
2019-02-24T12:10:26.776Z,33.90
2019-02-24T12:12:55.332Z,32.00
2019-02-24T12:15:23.862Z,33.20
2019-02-24T12:17:52.364Z,33.90
2019-02-24T12:20:20.931Z,34.80
2019-02-24T12:22:49.402Z,33.50
2019-02-24T12:25:18.145Z,33.10
2019-02-24T12:27:46.691Z,33.40
2019-02-24T12:30:16.629Z,31.20
2019-02-24T12:32:45.274Z,31.50
2019-02-24T12:35:13.899Z,32.50
2019-02-24T12:37:42.980Z,32.30
2019-02-24T12:40:15.816Z,30.00
2019-02-24T12:42:44.389Z,29.20
2019-02-24T12:45:12.920Z,28.90
2019-02-24T12:47:43.427Z,26.60
2019-02-24T12:50:14.760Z,28.70
2019-02-24T12:52:43.371Z,28.70
2019-02-24T12:55:12.271Z,28.20
2019-02-24T12:57:41.519Z,28.70
2019-02-24T13:00:14.804Z,31.40
2019-02-24T13:02:43.420Z,31.70
2019-02-24T13:05:12.060Z,31.80
2019-02-24T13:07:40.531Z,32.50
2019-02-24T13:10:12.141Z,33.10
2019-02-24T13:12:40.781Z,33.60
2019-02-24T13:15:09.791Z,32.10
2019-02-24T13:17:38.364Z,32.60
2019-02-24T13:20:10.111Z,33.90
2019-02-24T13:22:39.257Z,33.60
2019-02-24T13:25:10.445Z,36.00
2019-02-24T13:27:39.089Z,36.60
2019-02-24T13:30:12.976Z,35.90
2019-02-24T13:32:41.508Z,34.30
2019-02-24T13:35:10.223Z,33.30
2019-02-24T13:37:38.799Z,32.10
2019-02-24T13:40:12.815Z,32.80
2019-02-24T13:42:41.286Z,32.00
2019-02-24T13:45:15.744Z,33.50
2019-02-24T13:47:44.290Z,33.10
2019-02-24T13:50:13.866Z,32.70
2019-02-24T13:52:42.447Z,32.20
2019-02-24T13:55:12.738Z,32.70
2019-02-24T13:57:41.344Z,31.90
2019-02-24T14:00:16.000Z,32.50
2019-02-24T14:02:44.636Z,31.50
2019-02-24T14:05:14.037Z,32.60
2019-02-24T14:07:42.602Z,32.80
2019-02-24T14:10:13.002Z,32.80
2019-02-24T14:12:42.069Z,32.60
2019-02-24T14:15:13.072Z,34.20
2019-02-24T14:17:41.704Z,34.60
2019-02-24T14:20:12.508Z,36.40
2019-02-24T14:22:41.131Z,37.20
2019-02-24T14:25:11.272Z,37.30
2019-02-24T14:27:39.749Z,37.20
2019-02-24T14:30:16.995Z,36.70
2019-02-24T14:32:45.702Z,36.00
2019-02-24T14:35:19.803Z,36.40
2019-02-24T14:37:48.353Z,36.10
2019-02-24T14:40:17.073Z,36.50
2019-02-24T14:42:45.614Z,35.20
2019-02-24T14:45:17.187Z,33.60
2019-02-24T14:47:45.720Z,31.50
2019-02-24T14:50:14.454Z,30.10
2019-02-24T14:52:43.132Z,30.70
2019-02-24T14:55:13.358Z,30.40
2019-02-24T14:57:41.973Z,29.70
2019-02-24T15:00:19.466Z,30.90
2019-02-24T15:02:48.078Z,29.80
2019-02-24T15:05:16.992Z,29.50
2019-02-24T15:07:45.788Z,28.20
2019-02-24T15:10:19.604Z,29.70
2019-02-24T15:12:48.067Z,31.20
2019-02-24T15:15:19.846Z,30.50
2019-02-24T15:17:48.786Z,29.80
2019-02-24T15:20:19.184Z,31.30
2019-02-24T15:22:47.830Z,31.80
2019-02-24T15:25:17.699Z,31.00
2019-02-24T15:27:46.336Z,29.90
2019-02-24T15:30:26.494Z,29.20
2019-02-24T15:32:55.076Z,29.70
2019-02-24T15:35:23.629Z,29.80
2019-02-24T15:37:52.116Z,29.90
2019-02-24T15:40:20.683Z,29.30
2019-02-24T15:42:49.155Z,28.50
2019-02-24T15:45:17.797Z,28.00
2019-02-24T15:47:46.458Z,27.70
2019-02-24T15:50:15.172Z,27.70
2019-02-24T15:52:43.772Z,28.30
2019-02-24T15:55:17.091Z,29.30
2019-02-24T15:57:45.600Z,30.20
2019-02-24T16:00:19.140Z,30.20
2019-02-24T16:02:47.616Z,31.80
2019-02-24T16:05:16.199Z,32.00
2019-02-24T16:07:44.770Z,32.60
2019-02-24T16:10:18.661Z,32.80
2019-02-24T16:12:47.175Z,33.20
2019-02-24T16:15:17.448Z,33.50
2019-02-24T16:17:45.904Z,33.30
2019-02-24T16:20:22.883Z,34.20
2019-02-24T16:22:51.344Z,34.90
2019-02-24T16:25:19.867Z,35.00
2019-02-24T16:27:48.399Z,35.30
2019-02-24T16:30:17.120Z,35.50
2019-02-24T16:32:45.836Z,34.00
2019-02-24T16:35:15.872Z,35.30
2019-02-24T16:37:44.332Z,35.90
2019-02-24T16:40:21.016Z,35.30
2019-02-24T16:42:49.574Z,36.60
2019-02-24T16:45:18.208Z,39.00
2019-02-24T16:47:46.740Z,40.10
2019-02-24T16:50:23.784Z,39.80
2019-02-24T16:52:52.322Z,39.30
2019-02-24T16:55:20.964Z,41.50
2019-02-24T16:57:49.519Z,43.10
2019-02-24T17:00:25.364Z,43.40
2019-02-24T17:02:53.947Z,44.20
2019-02-24T17:05:22.923Z,44.60
2019-02-24T17:07:51.491Z,44.50
2019-02-24T17:10:27.373Z,45.40
2019-02-24T17:12:56.500Z,45.70
2019-02-24T17:15:24.961Z,45.80
2019-02-24T17:17:53.533Z,45.60
2019-02-24T17:20:29.954Z,46.40
2019-02-24T17:22:58.491Z,46.50
2019-02-24T17:25:26.983Z,46.20
2019-02-24T17:27:55.484Z,45.40
2019-02-24T17:30:24.188Z,43.80
2019-02-24T17:32:52.738Z,44.90
2019-02-24T17:35:21.501Z,45.70
2019-02-24T17:37:50.034Z,46.70
2019-02-24T17:40:20.182Z,47.50
2019-02-24T17:42:48.820Z,47.90
2019-02-24T17:45:18.387Z,48.10
2019-02-24T17:47:46.974Z,49.70
2019-02-24T17:50:16.791Z,52.30
2019-02-24T17:52:45.249Z,54.70
2019-02-24T17:55:14.757Z,55.00
2019-02-24T17:57:43.325Z,53.60
2019-02-24T18:00:32.551Z,54.40
2019-02-24T18:03:01.010Z,54.40
2019-02-24T18:05:29.517Z,55.10
2019-02-24T18:07:58.093Z,55.00
2019-02-24T18:10:26.626Z,55.20
2019-02-24T18:12:55.083Z,55.90
2019-02-24T18:15:23.666Z,55.50
2019-02-24T18:17:52.205Z,56.90
2019-02-24T18:20:22.200Z,58.00
2019-02-24T18:22:50.839Z,59.30
2019-02-24T18:25:19.441Z,59.00
2019-02-24T18:27:47.928Z,58.80
2019-02-24T18:30:22.410Z,58.70
2019-02-24T18:32:50.941Z,58.80
2019-02-24T18:35:19.498Z,58.70
2019-02-24T18:37:47.964Z,58.10
2019-02-24T18:40:16.992Z,59.20
2019-02-24T18:42:45.527Z,59.80
2019-02-24T18:45:14.763Z,60.30
2019-02-24T18:47:43.335Z,60.10
2019-02-24T18:50:14.873Z,59.30
2019-02-24T18:52:43.488Z,59.30
2019-02-24T18:55:12.688Z,59.00
2019-02-24T18:57:41.299Z,58.60
2019-02-24T19:00:20.256Z,58.90
2019-02-24T19:02:48.788Z,59.30
2019-02-24T19:05:17.414Z,59.60
2019-02-24T19:07:46.399Z,59.20
2019-02-24T19:10:21.324Z,59.30
2019-02-24T19:12:50.306Z,60.00
2019-02-24T19:15:22.970Z,60.60
2019-02-24T19:17:51.592Z,61.10
2019-02-24T19:20:21.500Z,61.70
2019-02-24T19:22:50.083Z,63.00
2019-02-24T19:25:18.701Z,63.30
2019-02-24T19:27:47.484Z,64.00
2019-02-24T19:30:19.903Z,64.80
2019-02-24T19:32:48.543Z,64.80
2019-02-24T19:35:18.468Z,65.00
2019-02-24T19:37:47.055Z,64.90
2019-02-24T19:40:17.745Z,65.80
2019-02-24T19:42:46.443Z,66.70
2019-02-24T19:45:25.369Z,65.80
2019-02-24T19:47:54.077Z,65.80
2019-02-24T19:50:22.694Z,65.70
2019-02-24T19:52:51.490Z,65.20
2019-02-24T19:55:20.059Z,64.50
2019-02-24T19:57:48.831Z,64.80
2019-02-24T20:00:20.453Z,64.80
2019-02-24T20:02:49.072Z,65.20
2019-02-24T20:05:18.073Z,64.70
2019-02-24T20:07:46.993Z,64.70
2019-02-24T20:10:20.550Z,64.50
2019-02-24T20:12:49.197Z,64.70
2019-02-24T20:15:17.904Z,65.10
2019-02-24T20:17:46.531Z,65.60
2019-02-24T20:20:16.855Z,65.80
2019-02-24T20:22:45.452Z,66.20
2019-02-24T20:25:18.842Z,66.20
2019-02-24T20:27:47.353Z,67.00
2019-02-24T20:30:18.791Z,66.60
2019-02-24T20:32:47.326Z,66.60
2019-02-24T20:35:15.820Z,68.50
2019-02-24T20:37:44.276Z,69.40
2019-02-24T20:40:13.044Z,69.20
2019-02-24T20:42:41.583Z,68.80
2019-02-24T20:45:15.945Z,68.60
2019-02-24T20:47:44.577Z,68.70
2019-02-24T20:50:15.592Z,68.20
2019-02-24T20:52:44.166Z,68.60
2019-02-24T20:55:12.985Z,69.70
2019-02-24T20:57:41.444Z,69.40
2019-02-24T21:00:19.221Z,68.80
2019-02-24T21:02:47.680Z,68.90
2019-02-24T21:05:16.685Z,69.60
2019-02-24T21:07:45.307Z,69.20
2019-02-24T21:10:13.948Z,71.90
2019-02-24T21:12:42.418Z,71.30
2019-02-24T21:15:13.668Z,73.20
2019-02-24T21:17:43.671Z,72.10
2019-02-24T21:20:31.917Z,72.40
2019-02-24T21:23:00.415Z,73.00
2019-02-24T21:25:29.031Z,72.60
2019-02-24T21:27:57.672Z,73.20
2019-02-24T21:30:27.081Z,75.30
2019-02-24T21:32:55.661Z,76.90
2019-02-24T21:35:24.202Z,77.30
2019-02-24T21:37:52.768Z,77.40
2019-02-24T21:40:23.425Z,77.10
2019-02-24T21:42:51.600Z,76.20
2019-02-24T21:45:22.781Z,75.70
2019-02-24T21:47:52.041Z,76.00
2019-02-24T21:50:20.727Z,75.00
2019-02-24T21:52:49.260Z,75.10
2019-02-24T21:55:18.035Z,76.30
2019-02-24T21:57:46.696Z,75.50
2019-02-24T22:00:20.152Z,75.40
2019-02-24T22:02:48.722Z,75.00
2019-02-24T22:05:17.359Z,75.70
2019-02-24T22:07:45.824Z,75.40
2019-02-24T22:10:15.633Z,75.80
2019-02-24T22:12:44.212Z,75.90
2019-02-24T22:15:15.788Z,75.30
2019-02-24T22:17:44.336Z,76.10
2019-02-24T22:20:14.889Z,77.00
2019-02-24T22:22:43.791Z,76.50
2019-02-24T22:25:14.497Z,76.20
2019-02-24T22:27:43.137Z,77.30
2019-02-24T22:30:14.508Z,79.00
2019-02-24T22:32:42.996Z,79.30
2019-02-24T22:35:11.625Z,80.30
2019-02-24T22:37:40.230Z,81.50
2019-02-24T22:40:16.412Z,81.50
2019-02-24T22:42:45.026Z,79.90
2019-02-24T22:45:22.440Z,79.40
2019-02-24T22:47:50.985Z,81.10
2019-02-24T22:50:19.638Z,81.40
2019-02-24T22:52:48.420Z,80.00
2019-02-24T22:55:17.958Z,79.40
2019-02-24T22:57:46.552Z,79.60
2019-02-24T23:00:34.700Z,79.20
2019-02-24T23:03:03.733Z,79.90
2019-02-24T23:05:32.261Z,78.90
2019-02-24T23:08:00.798Z,78.60
2019-02-24T23:10:29.362Z,78.90
2019-02-24T23:12:57.820Z,80.00
2019-02-24T23:15:26.303Z,81.40
2019-02-24T23:17:54.844Z,82.40
2019-02-24T23:20:23.334Z,81.70
2019-02-24T23:22:51.872Z,81.50
2019-02-24T23:25:20.355Z,81.00
2019-02-24T23:27:48.951Z,83.60
2019-02-24T23:30:17.524Z,83.80
2019-02-24T23:32:46.011Z,83.40
2019-02-24T23:35:14.576Z,83.90
2019-02-24T23:37:43.040Z,85.20
2019-02-24T23:40:11.635Z,84.60
2019-02-24T23:42:40.135Z,82.90
2019-02-24T23:45:11.006Z,82.10
2019-02-24T23:47:39.854Z,83.70
2019-02-24T23:50:11.031Z,84.70
2019-02-24T23:52:39.534Z,86.00
2019-02-24T23:55:09.512Z,86.90
2019-02-24T23:57:38.087Z,86.60
